Time;durP1;ratioP1;P1;durP2;ratioP2;P2;SDS_P1;SDS_P2;PMS_P1;PMS_P2;Temp;Humidity;BMP_temperature;BMP_pressure;BME280_temperature;BME280_humidity;BME280_pressure;Samples;Min_cycle;Max_cycle;Signal;HPM_P1;HPM_P2
2024/02/12 00:01:55;;;;;;;3.35;3.00;;;;;;;;;;5023848;28;58512;-73
2024/02/12 00:04:21;;;;;;;2.85;2.60;;;;;;;;;;5022511;28;58757;-73
2024/02/12 00:06:46;;;;;;;2.85;2.00;;;;;;;;;;5023531;28;59974;-74
2024/02/12 00:09:16;;;;;;;2.83;2.47;;;;;;;;;;5022712;28;60450;-74
2024/02/12 00:11:45;;;;;;;3.22;2.72;;;;;;;;;;5022246;28;59073;-73
2024/02/12 00:14:10;;;;;;;2.95;2.65;;;;;;;;;;5023269;28;58598;-73
2024/02/12 00:16:38;;;;;;;3.13;2.75;;;;;;;;;;5022265;28;58857;-73
2024/02/12 00:19:03;;;;;;;3.80;3.13;;;;;;;;;;5023429;28;59079;-73
2024/02/12 00:21:29;;;;;;;2.77;2.40;;;;;;;;;;5024394;28;58587;-73
2024/02/12 00:23:54;;;;;;;3.13;2.88;;;;;;;;;;5023484;28;60478;-73
2024/02/12 00:26:25;;;;;;;3.03;2.83;;;;;;;;;;5026449;28;59099;-73
2024/02/12 00:28:50;;;;;;;2.78;2.40;;;;;;;;;;5023865;28;59557;-73
2024/02/12 00:31:15;;;;;;;2.47;2.20;;;;;;;;;;5027912;28;58558;-73
2024/02/12 00:33:40;;;;;;;2.05;1.95;;;;;;;;;;5027415;28;58331;-73
2024/02/12 00:36:06;;;;;;;3.78;3.08;;;;;;;;;;5025827;28;60326;-73
2024/02/12 00:38:31;;;;;;;2.65;2.40;;;;;;;;;;5024680;28;58921;-74
2024/02/12 00:40:57;;;;;;;5.90;3.00;;;;;;;;;;5026993;28;58579;-74
2024/02/12 00:43:22;;;;;;;2.72;2.53;;;;;;;;;;5025743;28;60082;-74
2024/02/12 00:45:47;;;;;;;2.63;2.42;;;;;;;;;;5026676;28;58905;-72
2024/02/12 00:48:13;;;;;;;2.50;2.30;;;;;;;;;;5026925;28;58747;-77
2024/02/12 00:50:38;;;;;;;3.03;2.00;;;;;;;;;;5025711;28;58868;-78
2024/02/12 00:53:03;;;;;;;3.40;2.63;;;;;;;;;;5026367;28;58418;-76
2024/02/12 00:55:29;;;;;;;2.38;2.17;;;;;;;;;;5026541;28;59628;-77
2024/02/12 00:57:54;;;;;;;5.22;2.85;;;;;;;;;;5025922;28;59689;-75
2024/02/12 01:00:20;;;;;;;2.00;1.83;;;;;;;;;;5027699;28;58434;-75
2024/02/12 01:02:45;;;;;;;3.17;2.75;;;;;;;;;;5025033;28;59592;-75
2024/02/12 01:05:11;;;;;;;3.03;2.83;;;;;;;;;;5024497;28;58397;-75
2024/02/12 01:07:36;;;;;;;3.10;2.80;;;;;;;;;;5024444;28;58428;-75
2024/02/12 01:10:02;;;;;;;3.33;2.53;;;;;;;;;;5025930;28;59390;-75
2024/02/12 01:12:27;;;;;;;2.58;2.38;;;;;;;;;;5028047;28;58472;-75
2024/02/12 01:14:54;;;;;;;2.90;2.28;;;;;;;;;;5025067;28;60487;-75
2024/02/12 01:17:19;;;;;;;1.83;1.60;;;;;;;;;;5024342;28;59259;-74
2024/02/12 01:19:45;;;;;;;17.00;2.87;;;;;;;;;;5027450;28;58396;-75
2024/02/12 01:22:10;;;;;;;2.70;2.35;;;;;;;;;;5023658;28;59368;-75
2024/02/12 01:24:36;;;;;;;2.33;2.13;;;;;;;;;;5023259;28;60205;-74
2024/02/12 01:27:02;;;;;;;2.53;2.33;;;;;;;;;;5019903;28;58572;-76
2024/02/12 01:29:29;;;;;;;2.53;2.23;;;;;;;;;;5023756;28;60163;-74
2024/02/12 01:31:54;;;;;;;2.50;2.30;;;;;;;;;;5016199;28;59870;-75
2024/02/12 01:34:20;;;;;;;2.87;2.63;;;;;;;;;;5020138;28;59874;-74
2024/02/12 01:36:45;;;;;;;3.70;2.23;;;;;;;;;;5018809;28;60797;-75
2024/02/12 01:39:10;;;;;;;2.83;2.53;;;;;;;;;;5023249;28;58341;-75
2024/02/12 01:41:37;;;;;;;2.03;1.83;;;;;;;;;;5021827;28;59181;-75
2024/02/12 01:44:04;;;;;;;2.75;2.10;;;;;;;;;;5018834;28;58812;-75
2024/02/12 01:46:29;;;;;;;2.30;2.10;;;;;;;;;;5019730;28;58504;-75
2024/02/12 01:48:55;;;;;;;3.08;2.83;;;;;;;;;;5024713;28;59527;-71
2024/02/12 01:51:21;;;;;;;2.92;2.35;;;;;;;;;;5024976;28;59047;-71
2024/02/12 01:53:47;;;;;;;2.20;2.00;;;;;;;;;;5025735;28;58489;-71
2024/02/12 01:56:12;;;;;;;2.60;2.05;;;;;;;;;;5024971;28;58918;-71
2024/02/12 01:58:40;;;;;;;2.77;2.40;;;;;;;;;;5026547;28;58543;-71
2024/02/12 02:01:05;;;;;;;2.60;2.33;;;;;;;;;;5024170;28;60319;-72
2024/02/12 02:03:32;;;;;;;2.23;2.03;;;;;;;;;;5005403;28;59818;-72
2024/02/12 02:05:57;;;;;;;2.17;1.98;;;;;;;;;;5023391;28;58390;-71
2024/02/12 02:08:34;;;;;;;1.98;1.88;;;;;;;;;;5026877;28;58656;-72
2024/02/12 02:10:59;;;;;;;2.78;2.50;;;;;;;;;;5023363;28;58985;-72
2024/02/12 02:13:25;;;;;;;2.53;2.33;;;;;;;;;;5023876;28;58408;-72
2024/02/12 02:15:50;;;;;;;2.97;2.78;;;;;;;;;;5024391;28;59895;-72
2024/02/12 02:18:16;;;;;;;2.63;2.42;;;;;;;;;;5028827;28;58453;-72
2024/02/12 02:20:41;;;;;;;2.50;2.30;;;;;;;;;;5027320;28;59343;-71
2024/02/12 02:23:06;;;;;;;2.70;2.50;;;;;;;;;;5025956;28;58818;-72
2024/02/12 02:25:31;;;;;;;2.13;2.00;;;;;;;;;;5025042;28;58572;-71
2024/02/12 02:27:57;;;;;;;1.95;1.75;;;;;;;;;;5016175;28;58768;-72
2024/02/12 02:30:22;;;;;;;2.35;2.15;;;;;;;;;;5026792;28;59044;-71
2024/02/12 02:32:47;;;;;;;2.63;2.43;;;;;;;;;;5023784;28;58375;-72
2024/02/12 02:35:13;;;;;;;2.33;2.13;;;;;;;;;;5023654;28;58361;-72
2024/02/12 02:37:39;;;;;;;2.97;2.67;;;;;;;;;;5025378;28;58438;-72
2024/02/12 02:40:04;;;;;;;2.30;2.10;;;;;;;;;;5024906;28;60075;-72
2024/02/12 02:42:29;;;;;;;2.53;2.20;;;;;;;;;;5024710;28;59192;-71
2024/02/12 02:44:55;;;;;;;2.55;2.25;;;;;;;;;;5024601;28;58364;-72
2024/02/12 02:47:21;;;;;;;3.20;2.13;;;;;;;;;;5024788;28;59894;-72
2024/02/12 02:49:46;;;;;;;2.20;2.00;;;;;;;;;;5022849;28;58788;-72
2024/02/12 02:52:11;;;;;;;2.70;2.50;;;;;;;;;;5024437;28;58639;-72
2024/02/12 02:54:37;;;;;;;2.30;2.10;;;;;;;;;;5025552;28;59357;-72
2024/02/12 02:57:02;;;;;;;2.03;1.90;;;;;;;;;;5024056;28;61747;-72
2024/02/12 02:59:27;;;;;;;1.90;1.80;;;;;;;;;;5024977;28;59765;-75
2024/02/12 03:01:53;;;;;;;2.43;2.23;;;;;;;;;;5023532;28;59088;-75
2024/02/12 03:04:18;;;;;;;2.80;2.30;;;;;;;;;;5023910;28;58420;-75
2024/02/12 03:06:43;;;;;;;2.40;2.20;;;;;;;;;;5023515;28;59104;-75
2024/02/12 03:09:09;;;;;;;1.85;1.75;;;;;;;;;;5024630;28;60541;-72
2024/02/12 03:11:37;;;;;;;3.40;2.50;;;;;;;;;;5025908;28;58372;-72
2024/02/12 03:14:02;;;;;;;2.80;2.20;;;;;;;;;;5024268;28;60210;-72
2024/02/12 03:16:27;;;;;;;2.60;2.40;;;;;;;;;;5024068;28;58997;-72
2024/02/12 03:18:54;;;;;;;3.03;2.80;;;;;;;;;;5024670;28;58413;-72
2024/02/12 03:21:20;;;;;;;1.92;1.83;;;;;;;;;;5024185;28;59187;-72
2024/02/12 03:23:47;;;;;;;2.58;2.28;;;;;;;;;;5006642;28;58382;-72
2024/02/12 03:26:12;;;;;;;2.30;2.10;;;;;;;;;;5025244;28;60147;-72
2024/02/12 03:28:37;;;;;;;2.27;2.07;;;;;;;;;;5022178;28;58900;-72
2024/02/12 03:31:04;;;;;;;2.08;1.98;;;;;;;;;;5025278;28;58100;-72
2024/02/12 03:33:29;;;;;;;2.42;2.17;;;;;;;;;;5025202;28;60174;-72
2024/02/12 03:35:54;;;;;;;3.83;2.65;;;;;;;;;;5021814;28;58756;-72
2024/02/12 03:38:21;;;;;;;2.22;2.03;;;;;;;;;;5026002;28;58410;-72
2024/02/12 03:40:46;;;;;;;1.98;1.77;;;;;;;;;;5024793;28;60240;-73
2024/02/12 03:43:11;;;;;;;1.92;1.73;;;;;;;;;;5022196;28;58419;-73
2024/02/12 03:45:36;;;;;;;2.23;2.07;;;;;;;;;;5023275;28;60312;-73
2024/02/12 03:59:51;;;;;;;2.60;2.03;;;;;;;;;;5021889;28;60229;-73
2024/02/12 04:01:47;;;;;;;2.05;1.90;;;;;;;;;;5026563;28;58445;-72
2024/02/12 04:04:12;;;;;;;2.22;2.03;;;;;;;;;;5028111;28;58711;-72
2024/02/12 04:06:38;;;;;;;2.15;1.95;;;;;;;;;;5027923;28;60306;-73
2024/02/12 04:09:03;;;;;;;1.90;1.80;;;;;;;;;;5026285;28;59358;-75
2024/02/12 04:11:28;;;;;;;2.50;2.30;;;;;;;;;;5027724;28;58364;-75
2024/02/12 04:13:54;;;;;;;2.17;2.00;;;;;;;;;;5027661;28;59390;-75
2024/02/12 04:16:19;;;;;;;2.30;2.10;;;;;;;;;;5026299;28;58903;-76
2024/02/12 04:18:46;;;;;;;2.60;2.40;;;;;;;;;;5027596;28;58444;-75
2024/02/12 04:21:16;;;;;;;2.58;2.00;;;;;;;;;;5027413;28;60222;-74
2024/02/12 04:23:41;;;;;;;2.05;1.90;;;;;;;;;;5026074;28;59022;-75
2024/02/12 04:26:08;;;;;;;1.77;1.67;;;;;;;;;;5029256;28;58383;-76
2024/02/12 04:28:33;;;;;;;2.13;1.92;;;;;;;;;;5024694;28;59909;-75
2024/02/12 04:30:59;;;;;;;2.00;1.90;;;;;;;;;;5025363;28;58544;-76
2024/02/12 04:33:24;;;;;;;1.83;1.67;;;;;;;;;;5026394;28;59289;-73
2024/02/12 04:35:49;;;;;;;1.55;1.45;;;;;;;;;;5026470;28;58665;-76
2024/02/12 04:38:14;;;;;;;1.80;1.70;;;;;;;;;;5027531;28;58806;-75
2024/02/12 04:40:39;;;;;;;2.37;1.83;;;;;;;;;;5029031;28;59324;-76
2024/02/12 04:43:05;;;;;;;1.50;1.40;;;;;;;;;;5025934;28;59205;-76
2024/02/12 04:45:30;;;;;;;2.95;2.15;;;;;;;;;;5025479;28;58484;-76
2024/02/12 04:47:56;;;;;;;3.63;2.73;;;;;;;;;;5023359;28;58507;-75
2024/02/12 04:50:23;;;;;;;2.00;1.80;;;;;;;;;;5023675;28;58419;-75
2024/02/12 04:52:48;;;;;;;1.80;1.67;;;;;;;;;;5025353;28;59570;-75
2024/02/12 04:55:15;;;;;;;2.13;1.92;;;;;;;;;;5025791;28;58596;-75
2024/02/12 04:57:40;;;;;;;2.03;1.92;;;;;;;;;;5026351;28;58472;-75
2024/02/12 05:00:09;;;;;;;1.90;1.70;;;;;;;;;;5026354;28;58353;-75
2024/02/12 05:02:35;;;;;;;3.13;2.50;;;;;;;;;;5024039;28;59184;-76
2024/02/12 05:05:00;;;;;;;2.80;2.07;;;;;;;;;;5025517;28;58519;-74
2024/02/12 05:07:30;;;;;;;1.70;1.60;;;;;;;;;;5025105;28;60216;-75
2024/02/12 05:09:56;;;;;;;1.80;1.70;;;;;;;;;;5025724;28;58567;-75
2024/02/12 05:12:21;;;;;;;2.20;2.00;;;;;;;;;;5026686;28;59371;-75
2024/02/12 05:14:46;;;;;;;2.35;2.15;;;;;;;;;;5025321;28;59113;-75
2024/02/12 05:17:12;;;;;;;2.03;1.87;;;;;;;;;;5027545;28;58655;-76
2024/02/12 05:22:34;;;;;;;2.47;2.03;;;;;;;;;;5022928;28;58396;-75
2024/02/12 05:25:00;;;;;;;2.78;2.00;;;;;;;;;;5025937;28;58548;-75
2024/02/12 05:27:25;;;;;;;2.58;2.03;;;;;;;;;;5024994;28;58666;-73
2024/02/12 05:29:51;;;;;;;4.30;2.75;;;;;;;;;;5022526;28;59945;-74
2024/02/12 05:32:17;;;;;;;3.50;3.08;;;;;;;;;;5024825;28;60163;-75
2024/02/12 05:34:42;;;;;;;3.40;2.50;;;;;;;;;;5024605;28;58862;-75
2024/02/12 05:37:07;;;;;;;3.47;3.17;;;;;;;;;;5024431;28;58602;-75
2024/02/12 05:39:33;;;;;;;4.67;2.60;;;;;;;;;;5027065;28;58469;-76
2024/02/12 05:41:58;;;;;;;3.17;2.88;;;;;;;;;;5023930;28;59280;-75
2024/02/12 05:44:24;;;;;;;2.40;2.20;;;;;;;;;;5024095;28;58590;-76
2024/02/12 05:46:49;;;;;;;7.93;3.00;;;;;;;;;;5024509;28;60013;-75
2024/02/12 05:49:21;;;;;;;2.40;2.20;;;;;;;;;;5021953;28;59033;-75
2024/02/12 05:51:46;;;;;;;5.00;2.92;;;;;;;;;;5024366;28;58422;-75
2024/02/12 05:54:11;;;;;;;3.47;3.10;;;;;;;;;;5024766;28;58488;-75
2024/02/12 05:56:39;;;;;;;4.20;3.00;;;;;;;;;;5024439;28;58399;-76
2024/02/12 05:59:04;;;;;;;4.05;2.42;;;;;;;;;;5024583;28;59636;-75
2024/02/12 06:01:29;;;;;;;6.03;3.50;;;;;;;;;;5024982;28;58715;-75
2024/02/12 06:03:54;;;;;;;4.43;3.67;;;;;;;;;;5023226;28;58566;-76
2024/02/12 06:06:20;;;;;;;5.88;4.10;;;;;;;;;;5022804;28;59456;-75
2024/02/12 06:08:46;;;;;;;8.90;4.45;;;;;;;;;;5005717;28;60925;-75
2024/02/12 06:11:11;;;;;;;8.27;4.97;;;;;;;;;;5023412;28;58572;-75
2024/02/12 06:13:36;;;;;;;9.98;4.88;;;;;;;;;;5024154;28;60311;-76
2024/02/12 06:16:01;;;;;;;8.70;5.03;;;;;;;;;;5024051;28;58639;-75
2024/02/12 06:18:27;;;;;;;5.90;4.67;;;;;;;;;;5025381;28;59691;-75
2024/02/12 06:20:53;;;;;;;9.23;5.30;;;;;;;;;;5021918;28;58593;-75
2024/02/12 06:23:19;;;;;;;7.20;4.50;;;;;;;;;;5024028;28;58524;-75
2024/02/12 06:25:44;;;;;;;6.50;4.45;;;;;;;;;;5023591;28;58432;-75
2024/02/12 06:28:10;;;;;;;7.90;5.38;;;;;;;;;;5023499;28;59093;-73
2024/02/12 06:30:35;;;;;;;12.32;5.45;;;;;;;;;;5024180;28;58429;-73
2024/02/12 06:33:01;;;;;;;12.95;5.68;;;;;;;;;;5025649;28;59454;-72
2024/02/12 06:35:26;;;;;;;8.38;4.07;;;;;;;;;;5021426;28;58345;-72
2024/02/12 06:37:52;;;;;;;8.35;4.57;;;;;;;;;;5023376;28;59417;-73
2024/02/12 06:40:20;;;;;;;9.77;4.70;;;;;;;;;;5023347;28;59190;-73
2024/02/12 06:42:45;;;;;;;7.65;4.15;;;;;;;;;;5022970;28;58463;-73
2024/02/12 06:45:11;;;;;;;6.47;4.18;;;;;;;;;;5024016;28;59169;-72
2024/02/12 06:47:36;;;;;;;5.97;4.05;;;;;;;;;;5023427;28;59046;-75
2024/02/12 06:50:01;;;;;;;7.18;4.68;;;;;;;;;;5024820;28;58421;-76
2024/02/12 06:52:26;;;;;;;9.07;5.47;;;;;;;;;;5024135;28;58371;-75
2024/02/12 06:54:51;;;;;;;7.35;3.70;;;;;;;;;;5024209;28;59955;-74
2024/02/12 06:57:17;;;;;;;6.70;3.40;;;;;;;;;;5025888;28;58431;-75
2024/02/12 06:59:45;;;;;;;10.47;4.60;;;;;;;;;;5023121;28;58997;-75
2024/02/12 07:02:10;;;;;;;7.65;4.10;;;;;;;;;;5024747;28;58623;-75
2024/02/12 07:04:36;;;;;;;8.50;4.10;;;;;;;;;;5024392;28;60712;-74
2024/02/12 07:07:01;;;;;;;7.88;3.80;;;;;;;;;;5023488;28;59925;-75
2024/02/12 07:09:26;;;;;;;10.93;4.32;;;;;;;;;;5025129;28;58446;-75
2024/02/12 07:11:52;;;;;;;6.13;4.23;;;;;;;;;;5023792;28;58480;-74
2024/02/12 07:14:17;;;;;;;5.50;3.83;;;;;;;;;;5023828;28;58968;-75
2024/02/12 07:16:42;;;;;;;8.40;4.07;;;;;;;;;;5025372;28;58672;-75
2024/02/12 07:19:07;;;;;;;7.80;4.60;;;;;;;;;;5025015;28;59199;-75
2024/02/12 07:21:33;;;;;;;6.70;3.70;;;;;;;;;;5006501;28;58643;-75
2024/02/12 07:23:58;;;;;;;6.03;3.80;;;;;;;;;;5024518;28;59440;-75
2024/02/12 07:26:23;;;;;;;5.47;3.72;;;;;;;;;;5020218;28;58839;-75
2024/02/12 07:28:51;;;;;;;5.53;3.35;;;;;;;;;;5024136;28;58484;-75
2024/02/12 07:31:16;;;;;;;4.53;3.33;;;;;;;;;;5024388;28;60279;-75
2024/02/12 07:33:41;;;;;;;6.67;4.17;;;;;;;;;;5022371;28;58587;-75
2024/02/12 07:36:08;;;;;;;5.73;3.33;;;;;;;;;;5025101;28;58393;-76
2024/02/12 07:38:33;;;;;;;6.60;4.03;;;;;;;;;;5025537;28;60696;-75
2024/02/12 07:40:59;;;;;;;5.90;3.90;;;;;;;;;;5023623;28;58638;-76
2024/02/12 07:43:25;;;;;;;5.07;3.40;;;;;;;;;;5024079;28;58464;-75
2024/02/12 07:45:52;;;;;;;7.15;3.90;;;;;;;;;;5022306;28;59111;-75
2024/02/12 07:48:17;;;;;;;6.55;3.50;;;;;;;;;;5024260;28;58401;-75
2024/02/12 07:50:42;;;;;;;7.97;4.85;;;;;;;;;;5022914;28;59295;-75
2024/02/12 07:53:07;;;;;;;6.25;3.15;;;;;;;;;;5005561;28;59093;-75
2024/02/12 07:55:32;;;;;;;7.15;4.20;;;;;;;;;;5023026;28;58395;-76
2024/02/12 07:57:58;;;;;;;6.40;3.53;;;;;;;;;;5024065;28;58396;-75
2024/02/12 08:00:23;;;;;;;9.50;3.90;;;;;;;;;;5024057;28;58982;-74
2024/02/12 08:02:48;;;;;;;4.60;3.40;;;;;;;;;;5023815;28;60554;-75
2024/02/12 08:05:14;;;;;;;6.40;3.15;;;;;;;;;;5022004;28;58897;-75
2024/02/12 08:07:39;;;;;;;4.95;3.58;;;;;;;;;;5023098;28;58521;-75
2024/02/12 08:10:05;;;;;;;5.50;3.05;;;;;;;;;;5023645;28;59331;-75
2024/02/12 08:12:30;;;;;;;4.57;4.03;;;;;;;;;;5020339;28;58660;-75
2024/02/12 08:14:55;;;;;;;5.40;3.70;;;;;;;;;;5022479;28;58544;-75
2024/02/12 08:17:20;;;;;;;7.30;4.57;;;;;;;;;;5023219;28;58583;-75
2024/02/12 08:19:45;;;;;;;9.00;4.20;;;;;;;;;;5020662;28;58845;-75
2024/02/12 08:22:11;;;;;;;5.25;2.88;;;;;;;;;;5024201;28;58352;-75
2024/02/12 08:24:36;;;;;;;4.50;3.60;;;;;;;;;;5023147;28;59672;-75
2024/02/12 08:27:01;;;;;;;3.97;2.87;;;;;;;;;;5022693;28;58147;-75
2024/02/12 08:29:26;;;;;;;5.03;3.37;;;;;;;;;;5022826;28;60434;-75
2024/02/12 08:31:51;;;;;;;7.90;4.25;;;;;;;;;;5020588;28;59788;-76
2024/02/12 08:34:16;;;;;;;5.88;4.13;;;;;;;;;;5023397;28;58555;-75
2024/02/12 08:36:45;;;;;;;6.40;4.43;;;;;;;;;;5023341;28;60460;-75
2024/02/12 08:39:13;;;;;;;5.45;4.00;;;;;;;;;;5022223;28;58640;-76
2024/02/12 08:41:38;;;;;;;;;;;;;;;;;;5023749;28;58360;-75
2024/02/12 08:44:04;;;;;;;5.55;3.22;;;;;;;;;;5024506;28;59897;-75
2024/02/12 08:46:31;;;;;;;6.18;3.53;;;;;;;;;;5024345;28;58581;-75
2024/02/12 08:48:56;;;;;;;3.28;2.97;;;;;;;;;;5026742;28;58576;-72
2024/02/12 08:51:21;;;;;;;4.63;3.10;;;;;;;;;;5026091;28;59748;-73
2024/02/12 08:53:46;;;;;;;4.93;3.65;;;;;;;;;;5026036;28;58413;-72
2024/02/12 08:56:14;;;;;;;3.57;3.03;;;;;;;;;;5025433;28;59579;-73
2024/02/12 08:58:40;;;;;;;4.53;3.15;;;;;;;;;;5025379;28;58962;-73
2024/02/12 09:01:09;;;;;;;3.70;3.03;;;;;;;;;;5025809;28;58362;-72
2024/02/12 09:03:35;;;;;;;7.88;4.45;;;;;;;;;;5027486;28;59443;-73
2024/02/12 09:06:00;;;;;;;10.75;4.18;;;;;;;;;;5025770;28;58474;-73
2024/02/12 09:08:25;;;;;;;5.57;3.27;;;;;;;;;;5025201;28;59760;-75
2024/02/12 09:10:51;;;;;;;3.83;2.50;;;;;;;;;;5024028;28;58747;-75
2024/02/12 09:13:16;;;;;;;2.77;2.47;;;;;;;;;;5025467;28;58374;-75
2024/02/12 09:15:41;;;;;;;5.75;3.53;;;;;;;;;;5025508;28;58457;-75
2024/02/12 09:18:06;;;;;;;2.80;2.33;;;;;;;;;;5025210;28;59885;-75
2024/02/12 09:20:31;;;;;;;7.18;2.63;;;;;;;;;;5026875;28;58564;-75
2024/02/12 09:22:58;;;;;;;5.30;4.07;;;;;;;;;;5025490;28;58366;-75
2024/02/12 09:25:23;;;;;;;5.10;3.42;;;;;;;;;;5025104;28;59794;-74
2024/02/12 09:27:48;;;;;;;5.27;3.83;;;;;;;;;;5025451;28;60011;-75
2024/02/12 09:30:15;;;;;;;4.60;3.07;;;;;;;;;;5025620;28;58836;-74
2024/02/12 09:32:42;;;;;;;7.78;2.80;;;;;;;;;;5025649;28;58431;-75
2024/02/12 09:35:08;;;;;;;6.93;3.50;;;;;;;;;;5026040;28;59452;-76
2024/02/12 09:37:33;;;;;;;5.32;4.28;;;;;;;;;;5026767;28;59378;-75
2024/02/12 09:39:59;;;;;;;4.38;3.55;;;;;;;;;;5027240;28;58663;-74
2024/02/12 09:42:26;;;;;;;4.68;3.65;;;;;;;;;;5027195;28;59636;-75
2024/02/12 09:44:55;;;;;;;3.60;3.25;;;;;;;;;;5027304;28;59835;-75
2024/02/12 09:47:20;;;;;;;4.20;3.17;;;;;;;;;;5026146;28;58376;-75
2024/02/12 09:49:45;;;;;;;5.20;3.03;;;;;;;;;;5023605;28;58903;-75
2024/02/12 09:52:13;;;;;;;5.37;2.70;;;;;;;;;;5025547;28;58411;-75
2024/02/12 09:54:38;;;;;;;3.60;2.70;;;;;;;;;;5023877;28;60292;-75
2024/02/12 09:57:04;;;;;;;3.87;3.10;;;;;;;;;;5024632;28;58924;-75
2024/02/12 09:59:29;;;;;;;2.83;2.30;;;;;;;;;;5024393;28;58389;-75
2024/02/12 10:01:54;;;;;;;3.83;3.00;;;;;;;;;;5024762;28;58608;-75
2024/02/12 10:04:20;;;;;;;2.95;2.25;;;;;;;;;;5024451;28;59607;-75
2024/02/12 10:06:52;;;;;;;3.37;2.73;;;;;;;;;;5025862;28;58392;-75
2024/02/12 10:09:17;;;;;;;2.80;2.50;;;;;;;;;;5024115;28;59462;-75
2024/02/12 10:11:43;;;;;;;2.47;2.28;;;;;;;;;;5026200;28;58532;-75
2024/02/12 10:14:08;;;;;;;4.37;3.37;;;;;;;;;;5023282;28;59287;-75
2024/02/12 10:16:33;;;;;;;5.07;2.90;;;;;;;;;;5023502;28;59331;-75
2024/02/12 10:18:58;;;;;;;3.40;2.70;;;;;;;;;;5026132;28;58598;-75
2024/02/12 10:21:23;;;;;;;4.78;3.30;;;;;;;;;;5026062;28;59747;-75
2024/02/12 10:23:50;;;;;;;5.50;2.80;;;;;;;;;;5025362;28;58626;-75
2024/02/12 10:26:20;;;;;;;2.63;2.33;;;;;;;;;;5023873;28;58386;-74
2024/02/12 10:28:53;;;;;;;3.30;3.00;;;;;;;;;;5024487;28;59609;-74
2024/02/12 10:31:18;;;;;;;5.00;3.25;;;;;;;;;;5023686;28;59893;-76
2024/02/12 10:33:44;;;;;;;3.35;2.40;;;;;;;;;;5025010;28;59431;-75
2024/02/12 10:36:09;;;;;;;3.28;2.67;;;;;;;;;;5024855;28;58542;-75
2024/02/12 10:38:37;;;;;;;2.75;2.42;;;;;;;;;;5024703;28;58323;-75
2024/02/12 10:41:04;;;;;;;3.65;3.28;;;;;;;;;;5024110;28;60445;-75
2024/02/12 10:43:30;;;;;;;2.83;2.40;;;;;;;;;;5022915;28;58996;-75
2024/02/12 10:45:55;;;;;;;2.97;2.30;;;;;;;;;;5023901;28;58442;-75
2024/02/12 10:48:21;;;;;;;4.38;2.65;;;;;;;;;;5026578;28;59332;-75
2024/02/12 10:50:46;;;;;;;6.50;3.65;;;;;;;;;;5023477;28;58750;-75
2024/02/12 10:53:12;;;;;;;2.78;2.58;;;;;;;;;;5025848;28;59531;-74
2024/02/12 10:55:37;;;;;;;2.35;2.13;;;;;;;;;;5024397;28;58915;-75
2024/02/12 10:58:04;;;;;;;3.90;3.17;;;;;;;;;;5025708;28;58480;-75
2024/02/12 11:00:30;;;;;;;4.88;3.25;;;;;;;;;;5025224;28;59306;-75
2024/02/12 11:02:55;;;;;;;2.53;2.33;;;;;;;;;;5023517;28;59103;-74
2024/02/12 11:05:21;;;;;;;3.22;2.83;;;;;;;;;;5023949;28;58403;-75
2024/02/12 11:07:46;;;;;;;3.57;2.70;;;;;;;;;;5024988;28;58864;-72
2024/02/12 11:10:18;;;;;;;3.33;2.60;;;;;;;;;;5021654;28;58571;-72
2024/02/12 11:12:47;;;;;;;3.90;2.90;;;;;;;;;;5023380;28;58450;-73
2024/02/12 11:15:18;;;;;;;2.90;2.70;;;;;;;;;;5006738;28;60177;-73
2024/02/12 11:17:44;;;;;;;5.75;2.97;;;;;;;;;;5023922;28;58476;-73
2024/02/12 11:20:16;;;;;;;3.25;2.35;;;;;;;;;;5024103;28;59601;-73
2024/02/12 11:22:44;;;;;;;3.58;2.83;;;;;;;;;;5023495;28;59179;-73
2024/02/12 11:25:10;;;;;;;2.88;2.05;;;;;;;;;;5024555;28;58526;-72
2024/02/12 11:27:41;;;;;;;2.57;2.37;;;;;;;;;;5025103;28;59727;-73
2024/02/12 11:30:09;;;;;;;2.97;2.67;;;;;;;;;;5022814;28;63066;-72
2024/02/12 11:32:34;;;;;;;3.65;2.83;;;;;;;;;;5024710;28;58437;-73
2024/02/12 11:35:08;;;;;;;3.50;2.53;;;;;;;;;;5023641;28;59439;-72
2024/02/12 11:37:33;;;;;;;2.40;2.08;;;;;;;;;;5023639;28;58362;-72
2024/02/12 11:39:58;;;;;;;3.35;3.05;;;;;;;;;;5024836;28;58637;-73
2024/02/12 11:42:24;;;;;;;4.47;2.70;;;;;;;;;;5023182;28;60064;-72
2024/02/12 11:44:49;;;;;;;3.73;2.60;;;;;;;;;;5024546;28;58407;-72
2024/02/12 11:47:22;;;;;;;2.67;2.35;;;;;;;;;;5022581;28;59284;-73
2024/02/12 11:49:47;;;;;;;2.88;2.60;;;;;;;;;;5022149;28;58794;-72
2024/02/12 11:52:12;;;;;;;3.53;2.20;;;;;;;;;;5021169;28;58605;-73
2024/02/12 11:54:39;;;;;;;2.22;2.00;;;;;;;;;;5023775;28;59206;-73
2024/02/12 11:57:05;;;;;;;2.58;2.13;;;;;;;;;;5024309;28;59892;-74
2024/02/12 11:59:30;;;;;;;3.13;2.73;;;;;;;;;;5023548;28;58709;-72
2024/02/12 12:01:55;;;;;;;3.67;2.53;;;;;;;;;;5022403;28;58856;-73
2024/02/12 12:04:21;;;;;;;3.10;2.60;;;;;;;;;;5023543;28;58434;-73
2024/02/12 12:06:46;;;;;;;5.43;2.67;;;;;;;;;;5024841;28;59513;-72
2024/02/12 12:09:11;;;;;;;4.05;2.65;;;;;;;;;;5023213;28;58333;-72
2024/02/12 12:11:41;;;;;;;3.00;2.60;;;;;;;;;;5023958;28;58411;-73
2024/02/12 12:14:06;;;;;;;2.53;1.88;;;;;;;;;;5021271;28;60402;-72
2024/02/12 12:16:32;;;;;;;4.23;2.97;;;;;;;;;;5021621;28;58789;-73
2024/02/12 12:19:01;;;;;;;2.50;2.30;;;;;;;;;;5022407;28;58604;-74
2024/02/12 12:21:26;;;;;;;3.42;2.80;;;;;;;;;;5025555;28;59468;-75
2024/02/12 12:23:51;;;;;;;2.60;2.40;;;;;;;;;;5030561;28;58502;-75
2024/02/12 12:26:17;;;;;;;3.78;2.13;;;;;;;;;;5028689;28;59961;-75
2024/02/12 12:28:42;;;;;;;2.13;1.93;;;;;;;;;;5026698;28;60960;-75
2024/02/12 12:31:08;;;;;;;3.63;2.25;;;;;;;;;;5026215;28;58335;-75
2024/02/12 12:33:33;;;;;;;2.72;2.20;;;;;;;;;;5028118;28;59553;-75
2024/02/12 12:35:59;;;;;;;2.80;1.90;;;;;;;;;;5026393;28;58802;-74
2024/02/12 12:38:24;;;;;;;2.23;1.83;;;;;;;;;;5028731;28;58332;-75
2024/02/12 12:40:49;;;;;;;2.10;1.90;;;;;;;;;;5027377;28;59471;-75
2024/02/12 12:43:16;;;;;;;4.77;2.00;;;;;;;;;;5024772;28;58635;-74
2024/02/12 12:45:41;;;;;;;4.38;3.47;;;;;;;;;;5025580;28;58959;-75
2024/02/12 12:48:08;;;;;;;2.90;2.67;;;;;;;;;;5025812;28;58963;-75
2024/02/12 12:50:34;;;;;;;2.60;2.40;;;;;;;;;;5026343;28;58446;-75
2024/02/12 12:52:59;;;;;;;2.95;1.73;;;;;;;;;;5026200;28;59775;-75
2024/02/12 12:55:24;;;;;;;2.30;1.80;;;;;;;;;;5020702;28;59771;-75
2024/02/12 12:57:50;;;;;;;2.93;2.37;;;;;;;;;;5022465;28;58195;-75
2024/02/12 13:00:18;;;;;;;3.05;2.22;;;;;;;;;;5024721;28;59546;-75
2024/02/12 13:02:43;;;;;;;;;;;;;;;;;;5024177;28;58329;-75
2024/02/12 13:05:09;;;;;;;2.53;2.33;;;;;;;;;;5025127;28;59344;-75
2024/02/12 13:07:35;;;;;;;2.53;2.30;;;;;;;;;;5022601;28;58949;-75
2024/02/12 13:10:00;;;;;;;3.67;2.28;;;;;;;;;;5024255;28;58476;-75
2024/02/12 13:12:25;;;;;;;2.55;1.92;;;;;;;;;;5026627;28;59261;-75
2024/02/12 13:14:51;;;;;;;2.00;1.90;;;;;;;;;;5025443;28;58626;-75
2024/02/12 13:17:17;;;;;;;3.85;2.63;;;;;;;;;;5023899;28;58549;-76
2024/02/12 13:19:42;;;;;;;4.82;2.10;;;;;;;;;;5026848;28;59248;-74
2024/02/12 13:22:10;;;;;;;2.67;2.47;;;;;;;;;;5027078;28;58967;-75
2024/02/12 13:24:35;;;;;;;;;;;;;;;;;;5030062;28;59491;-77
2024/02/12 13:27:01;;;;;;;5.93;2.30;;;;;;;;;;5025411;28;58352;-76
2024/02/12 13:29:26;;;;;;;2.40;2.05;;;;;;;;;;5025282;28;58563;-72
2024/02/12 13:31:51;;;;;;;3.63;1.87;;;;;;;;;;5025602;28;58803;-73
2024/02/12 13:34:16;;;;;;;2.63;2.10;;;;;;;;;;5025098;28;58722;-72
2024/02/12 13:36:42;;;;;;;2.72;1.60;;;;;;;;;;5025247;28;58419;-72
2024/02/12 13:39:13;;;;;;;3.40;1.85;;;;;;;;;;5026275;28;60132;-72
2024/02/12 13:41:40;;;;;;;2.10;1.90;;;;;;;;;;5024150;28;58956;-72
2024/02/12 13:44:06;;;;;;;2.22;2.03;;;;;;;;;;5026635;28;58442;-71
2024/02/12 13:46:31;;;;;;;4.30;2.28;;;;;;;;;;5022571;28;59288;-72
2024/02/12 13:48:57;;;;;;;1.57;1.37;;;;;;;;;;5025729;28;58426;-73
2024/02/12 13:51:22;;;;;;;3.00;1.93;;;;;;;;;;5027809;28;60953;-72
2024/02/12 13:53:47;;;;;;;2.10;1.90;;;;;;;;;;5026031;28;58828;-72
2024/02/12 13:56:12;;;;;;;2.17;1.60;;;;;;;;;;5025331;28;59239;-72
2024/02/12 13:58:38;;;;;;;4.65;2.38;;;;;;;;;;5026643;28;59245;-72
2024/02/12 14:01:05;;;;;;;2.00;1.80;;;;;;;;;;5025864;28;60961;-72
2024/02/12 14:03:32;;;;;;;3.63;2.47;;;;;;;;;;5026574;28;58420;-72
2024/02/12 14:05:58;;;;;;;3.15;1.95;;;;;;;;;;5024110;28;59347;-72
2024/02/12 14:08:23;;;;;;;2.63;1.98;;;;;;;;;;5026732;28;58577;-72
2024/02/12 14:10:51;;;;;;;3.13;2.30;;;;;;;;;;5024415;28;59590;-73
2024/02/12 14:13:16;;;;;;;3.30;2.75;;;;;;;;;;5023982;28;58850;-72
2024/02/12 14:15:42;;;;;;;4.33;2.47;;;;;;;;;;5027946;28;58496;-72
2024/02/12 14:18:09;;;;;;;14.43;2.83;;;;;;;;;;5026515;28;59304;-72
2024/02/12 14:20:34;;;;;;;2.83;2.55;;;;;;;;;;5026301;28;58532;-72
2024/02/12 14:23:00;;;;;;;2.42;1.95;;;;;;;;;;5023434;28;58524;-73
2024/02/12 14:25:30;;;;;;;5.68;2.15;;;;;;;;;;5023886;28;59586;-72
2024/02/12 14:27:59;;;;;;;3.45;2.00;;;;;;;;;;5027378;28;58599;-73
2024/02/12 14:30:25;;;;;;;;;;;;;;;;;;5026065;28;60362;-72
2024/02/12 14:32:50;;;;;;;4.43;2.10;;;;;;;;;;5022750;28;58811;-72
2024/02/12 14:35:19;;;;;;;2.10;1.98;;;;;;;;;;5025577;28;58238;-73
2024/02/12 14:37:45;;;;;;;3.22;2.50;;;;;;;;;;5024848;28;58388;-73
2024/02/12 14:40:11;;;;;;;8.70;2.85;;;;;;;;;;5008916;28;59414;-73
2024/02/12 14:42:37;;;;;;;3.13;2.00;;;;;;;;;;5022523;28;58576;-72
2024/02/12 14:45:03;;;;;;;2.93;2.07;;;;;;;;;;5025127;28;58636;-74
2024/02/12 14:47:28;;;;;;;4.10;2.38;;;;;;;;;;5024718;28;59066;-72
2024/02/12 14:49:53;;;;;;;2.77;2.23;;;;;;;;;;5023568;28;58619;-73